首页
METAR-TAF:

METAR-TAF

机场 :

帕, 泰国

纬度: 18-10N, 经度: 100-10E, 海拔: 161米

当前天气观测

该预报发布于49分钟前的00:00 UTC
静风
温度 18°C
湿度 94%
气压 1013 hPa
能見度: 1500
轻雾

METAR: VTCP 220000Z 00000KT 1500 BR NSC 18/17 Q1013 BECMG FM0100 3000 BR

时间: 07:49 (00:49 UTC)

预报

该预报发布于1小时和49分钟前的23:00 UTC
预报有效从22日的 00点(UTC)到 22日的 24点(UTC)
风速5节,风向西南
能見度: 2000
少量云层高于3000英尺
轻雾
成为
从 22日的 03点(UTC)到 22日的 05点(UTC)
能見度: 7000

TAF: VTCP 212300Z 2200/2224 22005KT 2000 BR FEW030 BECMG 2203/2205 7000 NSW

超过4000个机场的气象观测和天气预报(METAR&TAF报告)。

可查询的气象台以黄色和红色小点在地图上表示。

将鼠标移到小点上方,可查看气象台名称。

然后点击查看天气观测和预报。

如需切换地图:点击带黑十字的绿色按钮放大地图;点击带横线的绿色按钮缩小地图;或者点击绿色箭头查看邻近地区的地图。


METAR-TAF: